Terminal Aerodrome Forecast
Issued by NWS

Home | Current Version | Previous Version | Text Only | Print | Product List | Glossary On
Versions: 1 2 3 4 5 6 7 8 9 10 11 12 13 14 15
000
FTUS43 KLSX 121700 RRA
TAFSUS
TAF
KSUS 121741Z 1218/1318 23007KT P6SM SCT150 BKN250
     FM130100 19010KT P6SM SCT100
     FM131000 24012KT P6SM SCT100 BKN250=

USA.gov is the U.S. government's official web portal to all federal, state and local government web resources and services.